sensor_id;sensor_type;location;lat;lon;timestamp;temperature;humidity
39079;DHT22;24829;49.208;12.080;2022-11-22T00:01:49;1.80;99.90
39079;DHT22;24829;49.208;12.080;2022-11-22T00:04:15;1.80;99.90
39079;DHT22;24829;49.208;12.080;2022-11-22T00:06:40;1.80;99.90
39079;DHT22;24829;49.208;12.080;2022-11-22T00:09:06;1.80;99.90
39079;DHT22;24829;49.208;12.080;2022-11-22T00:11:31;1.80;99.90
39079;DHT22;24829;49.208;12.080;2022-11-22T00:13:57;1.70;99.90
39079;DHT22;24829;49.208;12.080;2022-11-22T00:16:23;1.60;99.90
39079;DHT22;24829;49.208;12.080;2022-11-22T00:18:48;1.60;99.90
39079;DHT22;24829;49.208;12.080;2022-11-22T00:21:14;1.60;99.90
39079;DHT22;24829;49.208;12.080;2022-11-22T00:23:39;1.70;99.90
39079;DHT22;24829;49.208;12.080;2022-11-22T00:26:05;1.70;99.90
39079;DHT22;24829;49.208;12.080;2022-11-22T00:28:36;1.70;99.90
39079;DHT22;24829;49.208;12.080;2022-11-22T00:31:02;1.70;99.90
39079;DHT22;24829;49.208;12.080;2022-11-22T00:33:28;1.70;99.90
39079;DHT22;24829;49.208;12.080;2022-11-22T00:35:53;1.70;99.90
39079;DHT22;24829;49.208;12.080;2022-11-22T00:38:19;1.50;99.90
39079;DHT22;24829;49.208;12.080;2022-11-22T00:40:44;1.30;99.90
39079;DHT22;24829;49.208;12.080;2022-11-22T00:43:10;1.10;99.90
39079;DHT22;24829;49.208;12.080;2022-11-22T00:45:35;1.00;99.90
39079;DHT22;24829;49.208;12.080;2022-11-22T00:48:01;0.80;99.90
39079;DHT22;24829;49.208;12.080;2022-11-22T00:50:26;0.70;99.90
39079;DHT22;24829;49.208;12.080;2022-11-22T00:52:52;0.60;99.90
39079;DHT22;24829;49.208;12.080;2022-11-22T00:55:17;0.50;99.90
39079;DHT22;24829;49.208;12.080;2022-11-22T00:57:43;0.50;99.90
39079;DHT22;24829;49.208;12.080;2022-11-22T01:00:09;0.40;99.90
39079;DHT22;24829;49.208;12.080;2022-11-22T01:02:35;0.40;99.90
39079;DHT22;24829;49.208;12.080;2022-11-22T01:05:00;0.50;99.90
39079;DHT22;24829;49.208;12.080;2022-11-22T01:07:26;0.50;99.90
39079;DHT22;24829;49.208;12.080;2022-11-22T01:09:51;0.60;99.90
39079;DHT22;24829;49.208;12.080;2022-11-22T01:12:17;0.70;99.90
39079;DHT22;24829;49.208;12.080;2022-11-22T01:14:42;0.80;99.90
39079;DHT22;24829;49.208;12.080;2022-11-22T01:17:08;0.80;99.90
39079;DHT22;24829;49.208;12.080;2022-11-22T01:19:33;0.80;99.90
39079;DHT22;24829;49.208;12.080;2022-11-22T01:21:59;0.90;99.90
39079;DHT22;24829;49.208;12.080;2022-11-22T01:24:26;0.90;99.90
39079;DHT22;24829;49.208;12.080;2022-11-22T01:26:51;0.90;99.90
39079;DHT22;24829;49.208;12.080;2022-11-22T01:29:17;1.00;99.90
39079;DHT22;24829;49.208;12.080;2022-11-22T01:31:42;1.00;99.90
39079;DHT22;24829;49.208;12.080;2022-11-22T01:34:08;1.00;99.90
39079;DHT22;24829;49.208;12.080;2022-11-22T01:36:34;1.10;99.90
39079;DHT22;24829;49.208;12.080;2022-11-22T01:38:59;1.10;99.90
39079;DHT22;24829;49.208;12.080;2022-11-22T01:41:25;1.00;99.90
39079;DHT22;24829;49.208;12.080;2022-11-22T01:43:50;1.00;99.90
39079;DHT22;24829;49.208;12.080;2022-11-22T01:51:50;1.10;99.90
39079;DHT22;24829;49.208;12.080;2022-11-22T01:54:22;1.10;99.90
39079;DHT22;24829;49.208;12.080;2022-11-22T01:57:04;1.10;99.90
39079;DHT22;24829;49.208;12.080;2022-11-22T01:59:31;1.10;99.90
39079;DHT22;24829;49.208;12.080;2022-11-22T02:01:58;1.10;99.90
39079;DHT22;24829;49.208;12.080;2022-11-22T02:04:26;1.10;99.90
39079;DHT22;24829;49.208;12.080;2022-11-22T02:06:55;1.10;99.90
39079;DHT22;24829;49.208;12.080;2022-11-22T02:09:23;1.20;99.90
39079;DHT22;24829;49.208;12.080;2022-11-22T02:11:56;1.20;99.90
39079;DHT22;24829;49.208;12.080;2022-11-22T02:14:27;1.10;99.90
39079;DHT22;24829;49.208;12.080;2022-11-22T02:16:53;1.10;99.90
39079;DHT22;24829;49.208;12.080;2022-11-22T02:19:37;1.10;99.90
39079;DHT22;24829;49.208;12.080;2022-11-22T02:22:33;1.10;99.90
39079;DHT22;24829;49.208;12.080;2022-11-22T02:27:37;1.00;99.90
39079;DHT22;24829;49.208;12.080;2022-11-22T02:30:04;1.00;99.90
39079;DHT22;24829;49.208;12.080;2022-11-22T02:32:30;1.00;99.90
39079;DHT22;24829;49.208;12.080;2022-11-22T02:34:55;1.00;99.90
39079;DHT22;24829;49.208;12.080;2022-11-22T02:37:27;1.00;99.90
39079;DHT22;24829;49.208;12.080;2022-11-22T02:40:01;1.00;99.90
39079;DHT22;24829;49.208;12.080;2022-11-22T02:42:27;1.00;99.90
39079;DHT22;24829;49.208;12.080;2022-11-22T02:44:54;1.00;99.90
39079;DHT22;24829;49.208;12.080;2022-11-22T02:47:19;1.10;99.90
39079;DHT22;24829;49.208;12.080;2022-11-22T02:49:45;0.90;99.90
39079;DHT22;24829;49.208;12.080;2022-11-22T02:52:15;0.70;99.90
39079;DHT22;24829;49.208;12.080;2022-11-22T02:54:41;0.60;99.90
39079;DHT22;24829;49.208;12.080;2022-11-22T02:57:06;0.40;99.90
39079;DHT22;24829;49.208;12.080;2022-11-22T02:59:32;0.40;99.90
39079;DHT22;24829;49.208;12.080;2022-11-22T03:01:57;0.30;99.90
39079;DHT22;24829;49.208;12.080;2022-11-22T03:04:23;0.20;99.90
39079;DHT22;24829;49.208;12.080;2022-11-22T03:06:57;0.20;99.90
39079;DHT22;24829;49.208;12.080;2022-11-22T03:09:24;0.20;99.90
39079;DHT22;24829;49.208;12.080;2022-11-22T03:11:50;0.20;99.90
39079;DHT22;24829;49.208;12.080;2022-11-22T03:14:16;0.30;99.90
39079;DHT22;24829;49.208;12.080;2022-11-22T03:16:42;0.30;99.90
39079;DHT22;24829;49.208;12.080;2022-11-22T03:19:09;0.40;99.90
39079;DHT22;24829;49.208;12.080;2022-11-22T03:21:35;0.60;99.90
39079;DHT22;24829;49.208;12.080;2022-11-22T03:24:01;0.60;99.90
39079;DHT22;24829;49.208;12.080;2022-11-22T03:26:26;0.60;99.90
39079;DHT22;24829;49.208;12.080;2022-11-22T03:28:52;0.60;99.90
39079;DHT22;24829;49.208;12.080;2022-11-22T03:31:18;0.60;99.90
39079;DHT22;24829;49.208;12.080;2022-11-22T03:33:43;0.60;99.90
39079;DHT22;24829;49.208;12.080;2022-11-22T03:36:09;0.60;99.90
39079;DHT22;24829;49.208;12.080;2022-11-22T03:38:34;0.70;99.90
39079;DHT22;24829;49.208;12.080;2022-11-22T03:41:00;0.70;99.90
39079;DHT22;24829;49.208;12.080;2022-11-22T03:43:26;0.80;99.90
39079;DHT22;24829;49.208;12.080;2022-11-22T03:45:51;0.80;99.90
39079;DHT22;24829;49.208;12.080;2022-11-22T03:48:18;0.80;99.90
39079;DHT22;24829;49.208;12.080;2022-11-22T03:50:43;0.90;99.90
39079;DHT22;24829;49.208;12.080;2022-11-22T03:53:09;0.90;99.90
39079;DHT22;24829;49.208;12.080;2022-11-22T03:55:35;1.00;99.90
39079;DHT22;24829;49.208;12.080;2022-11-22T03:58:01;1.00;99.90
39079;DHT22;24829;49.208;12.080;2022-11-22T04:00:27;1.00;99.90
39079;DHT22;24829;49.208;12.080;2022-11-22T04:02:52;1.10;99.90
39079;DHT22;24829;49.208;12.080;2022-11-22T04:05:18;1.10;99.90
39079;DHT22;24829;49.208;12.080;2022-11-22T04:07:44;1.20;99.90
39079;DHT22;24829;49.208;12.080;2022-11-22T04:10:09;1.20;99.90
39079;DHT22;24829;49.208;12.080;2022-11-22T04:12:35;1.20;99.90
39079;DHT22;24829;49.208;12.080;2022-11-22T04:15:01;1.20;99.90
39079;DHT22;24829;49.208;12.080;2022-11-22T04:17:40;1.30;99.90
39079;DHT22;24829;49.208;12.080;2022-11-22T04:20:15;1.30;99.90
39079;DHT22;24829;49.208;12.080;2022-11-22T04:25:31;1.30;99.90
39079;DHT22;24829;49.208;12.080;2022-11-22T04:27:57;1.30;99.90
39079;DHT22;24829;49.208;12.080;2022-11-22T04:30:24;1.30;99.90
39079;DHT22;24829;49.208;12.080;2022-11-22T04:33:10;1.30;99.90
39079;DHT22;24829;49.208;12.080;2022-11-22T04:35:36;1.30;99.90
39079;DHT22;24829;49.208;12.080;2022-11-22T04:38:02;1.30;99.90
39079;DHT22;24829;49.208;12.080;2022-11-22T04:40:28;1.30;99.90
39079;DHT22;24829;49.208;12.080;2022-11-22T04:42:53;1.40;99.90
39079;DHT22;24829;49.208;12.080;2022-11-22T04:45:37;1.40;99.90
39079;DHT22;24829;49.208;12.080;2022-11-22T04:48:03;1.40;99.90
39079;DHT22;24829;49.208;12.080;2022-11-22T04:50:30;1.50;99.90
39079;DHT22;24829;49.208;12.080;2022-11-22T04:53:16;1.50;99.90
39079;DHT22;24829;49.208;12.080;2022-11-22T04:55:43;1.50;99.90
39079;DHT22;24829;49.208;12.080;2022-11-22T04:58:09;1.50;99.90
39079;DHT22;24829;49.208;12.080;2022-11-22T05:00:35;1.40;99.90
39079;DHT22;24829;49.208;12.080;2022-11-22T05:03:01;1.30;99.90
39079;DHT22;24829;49.208;12.080;2022-11-22T05:05:27;1.30;99.90
39079;DHT22;24829;49.208;12.080;2022-11-22T05:07:53;1.30;99.90
39079;DHT22;24829;49.208;12.080;2022-11-22T05:10:19;1.20;99.90
39079;DHT22;24829;49.208;12.080;2022-11-22T05:12:44;1.20;99.90
39079;DHT22;24829;49.208;12.080;2022-11-22T05:15:10;1.10;99.90
39079;DHT22;24829;49.208;12.080;2022-11-22T05:17:37;1.10;99.90
39079;DHT22;24829;49.208;12.080;2022-11-22T05:20:07;1.10;99.90
39079;DHT22;24829;49.208;12.080;2022-11-22T05:22:33;1.10;99.90
39079;DHT22;24829;49.208;12.080;2022-11-22T05:25:22;1.20;99.90
39079;DHT22;24829;49.208;12.080;2022-11-22T05:27:52;1.10;99.90
39079;DHT22;24829;49.208;12.080;2022-11-22T05:30:17;1.20;99.90
39079;DHT22;24829;49.208;12.080;2022-11-22T05:32:43;1.20;99.90
39079;DHT22;24829;49.208;12.080;2022-11-22T05:35:09;1.20;99.90
39079;DHT22;24829;49.208;12.080;2022-11-22T05:37:34;1.30;99.90
39079;DHT22;24829;49.208;12.080;2022-11-22T05:40:00;1.30;99.90
39079;DHT22;24829;49.208;12.080;2022-11-22T05:42:25;1.30;99.90
39079;DHT22;24829;49.208;12.080;2022-11-22T05:44:51;1.30;99.90
39079;DHT22;24829;49.208;12.080;2022-11-22T05:47:16;1.30;99.90
39079;DHT22;24829;49.208;12.080;2022-11-22T05:49:42;1.30;99.90
39079;DHT22;24829;49.208;12.080;2022-11-22T05:52:10;1.30;99.90
39079;DHT22;24829;49.208;12.080;2022-11-22T05:54:35;1.30;99.90
39079;DHT22;24829;49.208;12.080;2022-11-22T05:57:01;1.40;99.90
39079;DHT22;24829;49.208;12.080;2022-11-22T05:59:26;1.40;99.90
39079;DHT22;24829;49.208;12.080;2022-11-22T06:01:52;1.50;99.90
39079;DHT22;24829;49.208;12.080;2022-11-22T06:04:18;1.50;99.90
39079;DHT22;24829;49.208;12.080;2022-11-22T06:06:45;1.50;99.90
39079;DHT22;24829;49.208;12.080;2022-11-22T06:09:11;1.60;99.90
39079;DHT22;24829;49.208;12.080;2022-11-22T06:11:37;1.60;99.90
39079;DHT22;24829;49.208;12.080;2022-11-22T06:14:02;1.60;99.90
39079;DHT22;24829;49.208;12.080;2022-11-22T06:16:28;1.60;99.90
39079;DHT22;24829;49.208;12.080;2022-11-22T06:18:54;1.60;99.90
39079;DHT22;24829;49.208;12.080;2022-11-22T06:21:22;1.70;99.90
39079;DHT22;24829;49.208;12.080;2022-11-22T06:23:48;1.70;99.90
39079;DHT22;24829;49.208;12.080;2022-11-22T06:26:16;1.70;99.90
39079;DHT22;24829;49.208;12.080;2022-11-22T06:28:43;1.80;99.90
39079;DHT22;24829;49.208;12.080;2022-11-22T06:31:23;1.80;99.90
39079;DHT22;24829;49.208;12.080;2022-11-22T06:33:49;1.80;99.90
39079;DHT22;24829;49.208;12.080;2022-11-22T06:36:16;1.80;99.90
39079;DHT22;24829;49.208;12.080;2022-11-22T06:38:42;1.90;99.90
39079;DHT22;24829;49.208;12.080;2022-11-22T06:41:11;1.90;99.90
39079;DHT22;24829;49.208;12.080;2022-11-22T06:43:38;1.90;99.90
39079;DHT22;24829;49.208;12.080;2022-11-22T06:46:04;1.90;99.90
39079;DHT22;24829;49.208;12.080;2022-11-22T06:48:32;1.90;99.90
39079;DHT22;24829;49.208;12.080;2022-11-22T06:51:02;2.00;99.90
39079;DHT22;24829;49.208;12.080;2022-11-22T06:53:29;2.00;99.90
39079;DHT22;24829;49.208;12.080;2022-11-22T06:58:43;1.90;99.90
39079;DHT22;24829;49.208;12.080;2022-11-22T07:01:29;1.80;99.90
39079;DHT22;24829;49.208;12.080;2022-11-22T07:03:57;1.70;99.90
39079;DHT22;24829;49.208;12.080;2022-11-22T07:06:28;1.60;99.90
39079;DHT22;24829;49.208;12.080;2022-11-22T07:08:54;1.50;99.90
39079;DHT22;24829;49.208;12.080;2022-11-22T07:11:25;1.50;99.90
39079;DHT22;24829;49.208;12.080;2022-11-22T07:13:53;1.60;99.90
39079;DHT22;24829;49.208;12.080;2022-11-22T07:16:20;1.60;99.90
39079;DHT22;24829;49.208;12.080;2022-11-22T07:18:46;1.70;99.90
39079;DHT22;24829;49.208;12.080;2022-11-22T07:21:15;1.70;99.90
39079;DHT22;24829;49.208;12.080;2022-11-22T07:23:43;1.80;99.90
39079;DHT22;24829;49.208;12.080;2022-11-22T07:26:09;1.90;99.90
39079;DHT22;24829;49.208;12.080;2022-11-22T07:28:36;1.90;99.90
39079;DHT22;24829;49.208;12.080;2022-11-22T07:31:04;2.00;99.90
39079;DHT22;24829;49.208;12.080;2022-11-22T07:33:30;2.10;99.90
39079;DHT22;24829;49.208;12.080;2022-11-22T07:36:03;2.10;99.90
39079;DHT22;24829;49.208;12.080;2022-11-22T07:38:29;2.10;99.90
39079;DHT22;24829;49.208;12.080;2022-11-22T07:40:55;2.10;99.90
39079;DHT22;24829;49.208;12.080;2022-11-22T07:43:21;2.20;99.90
39079;DHT22;24829;49.208;12.080;2022-11-22T07:45:46;2.20;99.90
39079;DHT22;24829;49.208;12.080;2022-11-22T07:48:12;2.20;99.90
39079;DHT22;24829;49.208;12.080;2022-11-22T07:50:42;2.30;99.90
39079;DHT22;24829;49.208;12.080;2022-11-22T07:53:08;2.30;99.90
39079;DHT22;24829;49.208;12.080;2022-11-22T07:55:35;2.40;99.90
39079;DHT22;24829;49.208;12.080;2022-11-22T07:58:00;2.40;99.90
39079;DHT22;24829;49.208;12.080;2022-11-22T08:00:26;2.50;99.90
39079;DHT22;24829;49.208;12.080;2022-11-22T08:02:52;2.60;99.90
39079;DHT22;24829;49.208;12.080;2022-11-22T08:05:18;2.60;99.90
39079;DHT22;24829;49.208;12.080;2022-11-22T08:07:51;2.60;99.90
39079;DHT22;24829;49.208;12.080;2022-11-22T08:10:17;2.60;99.90
39079;DHT22;24829;49.208;12.080;2022-11-22T08:12:43;2.70;99.90
39079;DHT22;24829;49.208;12.080;2022-11-22T08:15:10;2.70;99.90
39079;DHT22;24829;49.208;12.080;2022-11-22T08:17:36;2.70;99.90
39079;DHT22;24829;49.208;12.080;2022-11-22T08:20:04;2.70;99.90
39079;DHT22;24829;49.208;12.080;2022-11-22T08:22:30;2.80;99.90
39079;DHT22;24829;49.208;12.080;2022-11-22T08:24:56;2.80;99.90
39079;DHT22;24829;49.208;12.080;2022-11-22T08:27:23;3.00;99.90
39079;DHT22;24829;49.208;12.080;2022-11-22T08:29:49;3.00;99.90
39079;DHT22;24829;49.208;12.080;2022-11-22T08:32:14;3.10;99.90
39079;DHT22;24829;49.208;12.080;2022-11-22T08:34:40;3.10;99.90
39079;DHT22;24829;49.208;12.080;2022-11-22T08:37:06;3.10;99.90
39079;DHT22;24829;49.208;12.080;2022-11-22T08:39:31;3.10;99.90
39079;DHT22;24829;49.208;12.080;2022-11-22T08:41:57;3.20;99.90
39079;DHT22;24829;49.208;12.080;2022-11-22T08:44:23;3.20;99.90
39079;DHT22;24829;49.208;12.080;2022-11-22T08:46:48;3.40;99.90
39079;DHT22;24829;49.208;12.080;2022-11-22T08:49:14;3.40;99.90
39079;DHT22;24829;49.208;12.080;2022-11-22T08:51:40;3.40;99.90
39079;DHT22;24829;49.208;12.080;2022-11-22T08:54:10;3.40;99.90
39079;DHT22;24829;49.208;12.080;2022-11-22T08:56:36;3.40;99.90
39079;DHT22;24829;49.208;12.080;2022-11-22T08:59:01;3.40;99.90
39079;DHT22;24829;49.208;12.080;2022-11-22T09:01:27;3.40;99.90
39079;DHT22;24829;49.208;12.080;2022-11-22T09:03:53;3.40;99.90
39079;DHT22;24829;49.208;12.080;2022-11-22T09:06:19;3.40;99.90
39079;DHT22;24829;49.208;12.080;2022-11-22T09:08:45;3.50;99.90
39079;DHT22;24829;49.208;12.080;2022-11-22T09:11:14;3.50;99.90
39079;DHT22;24829;49.208;12.080;2022-11-22T09:13:40;3.40;99.90
39079;DHT22;24829;49.208;12.080;2022-11-22T09:16:11;3.40;99.90
39079;DHT22;24829;49.208;12.080;2022-11-22T09:18:37;3.40;99.90
39079;DHT22;24829;49.208;12.080;2022-11-22T09:21:09;3.40;99.90
39079;DHT22;24829;49.208;12.080;2022-11-22T09:23:35;3.30;99.90
39079;DHT22;24829;49.208;12.080;2022-11-22T09:26:04;3.20;99.90
39079;DHT22;24829;49.208;12.080;2022-11-22T09:28:30;3.20;99.90
39079;DHT22;24829;49.208;12.080;2022-11-22T09:31:04;3.20;99.90
39079;DHT22;24829;49.208;12.080;2022-11-22T09:33:31;3.10;99.90
39079;DHT22;24829;49.208;12.080;2022-11-22T09:36:02;3.10;99.90
39079;DHT22;24829;49.208;12.080;2022-11-22T09:38:29;3.20;99.90
39079;DHT22;24829;49.208;12.080;2022-11-22T09:40:55;3.20;99.90
39079;DHT22;24829;49.208;12.080;2022-11-22T09:51:20;3.40;99.90
39079;DHT22;24829;49.208;12.080;2022-11-22T09:54:24;3.40;99.90
39079;DHT22;24829;49.208;12.080;2022-11-22T09:56:53;3.50;99.90
39079;DHT22;24829;49.208;12.080;2022-11-22T09:59:25;3.50;99.90
39079;DHT22;24829;49.208;12.080;2022-11-22T10:01:58;3.60;99.90
39079;DHT22;24829;49.208;12.080;2022-11-22T10:04:31;3.60;99.90
39079;DHT22;24829;49.208;12.080;2022-11-22T10:07:00;3.70;99.90
39079;DHT22;24829;49.208;12.080;2022-11-22T10:10:25;3.70;99.90
39079;DHT22;24829;49.208;12.080;2022-11-22T10:12:32;3.80;99.90
39079;DHT22;24829;49.208;12.080;2022-11-22T10:17:55;3.90;99.90
39079;DHT22;24829;49.208;12.080;2022-11-22T10:20:24;3.90;99.90
39079;DHT22;24829;49.208;12.080;2022-11-22T10:22:50;4.00;99.90
39079;DHT22;24829;49.208;12.080;2022-11-22T10:25:38;4.00;99.90
39079;DHT22;24829;49.208;12.080;2022-11-22T10:31:13;4.10;99.90
39079;DHT22;24829;49.208;12.080;2022-11-22T10:37:06;4.30;99.90
39079;DHT22;24829;49.208;12.080;2022-11-22T10:45:11;4.40;99.90
39079;DHT22;24829;49.208;12.080;2022-11-22T10:50:17;4.60;99.90
39079;DHT22;24829;49.208;12.080;2022-11-22T10:52:59;4.60;99.90
39079;DHT22;24829;49.208;12.080;2022-11-22T10:56:00;4.70;99.90
39079;DHT22;24829;49.208;12.080;2022-11-22T10:58:48;4.70;99.90
39079;DHT22;24829;49.208;12.080;2022-11-22T11:03:58;4.80;99.90
39079;DHT22;24829;49.208;12.080;2022-11-22T11:06:31;4.90;99.90
39079;DHT22;24829;49.208;12.080;2022-11-22T11:09:09;4.90;99.90
39079;DHT22;24829;49.208;12.080;2022-11-22T11:11:37;4.90;99.90
39079;DHT22;24829;49.208;12.080;2022-11-22T11:16:48;4.90;99.90
39079;DHT22;24829;49.208;12.080;2022-11-22T11:19:22;4.90;99.90
39079;DHT22;24829;49.208;12.080;2022-11-22T11:21:59;4.90;99.90
39079;DHT22;24829;49.208;12.080;2022-11-22T11:24:29;4.90;99.90
39079;DHT22;24829;49.208;12.080;2022-11-22T11:26:57;4.90;99.90
39079;DHT22;24829;49.208;12.080;2022-11-22T11:32:15;4.80;99.90
39079;DHT22;24829;49.208;12.080;2022-11-22T11:34:51;4.80;99.90
39079;DHT22;24829;49.208;12.080;2022-11-22T11:37:25;4.80;99.90
39079;DHT22;24829;49.208;12.080;2022-11-22T11:39:51;4.90;99.90
39079;DHT22;24829;49.208;12.080;2022-11-22T11:44:47;5.00;99.90
39079;DHT22;24829;49.208;12.080;2022-11-22T11:47:33;5.00;99.90
39079;DHT22;24829;49.208;12.080;2022-11-22T11:49:59;5.00;99.90
39079;DHT22;24829;49.208;12.080;2022-11-22T11:52:25;5.00;99.90
39079;DHT22;24829;49.208;12.080;2022-11-22T11:54:55;5.00;99.90
39079;DHT22;24829;49.208;12.080;2022-11-22T11:57:29;5.10;99.90
39079;DHT22;24829;49.208;12.080;2022-11-22T11:59:57;5.10;99.90
39079;DHT22;24829;49.208;12.080;2022-11-22T12:02:37;5.10;99.90
39079;DHT22;24829;49.208;12.080;2022-11-22T12:07:38;5.10;99.90
39079;DHT22;24829;49.208;12.080;2022-11-22T12:10:27;5.10;99.90
39079;DHT22;24829;49.208;12.080;2022-11-22T12:18:55;5.20;99.90
39079;DHT22;24829;49.208;12.080;2022-11-22T12:21:45;5.30;99.90
39079;DHT22;24829;49.208;12.080;2022-11-22T12:26:57;5.40;99.90
39079;DHT22;24829;49.208;12.080;2022-11-22T12:29:23;5.50;99.90
39079;DHT22;24829;49.208;12.080;2022-11-22T12:39:47;5.50;99.90
39079;DHT22;24829;49.208;12.080;2022-11-22T12:42:18;5.50;99.90
39079;DHT22;24829;49.208;12.080;2022-11-22T12:44:52;5.60;99.90
39079;DHT22;24829;49.208;12.080;2022-11-22T12:47:21;5.60;99.90
39079;DHT22;24829;49.208;12.080;2022-11-22T12:49:52;5.60;99.90
39079;DHT22;24829;49.208;12.080;2022-11-22T12:52:48;5.60;99.90
39079;DHT22;24829;49.208;12.080;2022-11-22T12:55:23;5.60;99.90
39079;DHT22;24829;49.208;12.080;2022-11-22T12:57:52;5.60;99.90
39079;DHT22;24829;49.208;12.080;2022-11-22T13:00:21;5.60;99.90
39079;DHT22;24829;49.208;12.080;2022-11-22T13:03:07;5.60;99.90
39079;DHT22;24829;49.208;12.080;2022-11-22T13:05:42;5.60;99.90
39079;DHT22;24829;49.208;12.080;2022-11-22T13:08:23;5.70;99.90
39079;DHT22;24829;49.208;12.080;2022-11-22T13:14:22;5.70;99.90
39079;DHT22;24829;49.208;12.080;2022-11-22T13:16:51;5.60;99.90
39079;DHT22;24829;49.208;12.080;2022-11-22T13:19:21;5.60;99.90
39079;DHT22;24829;49.208;12.080;2022-11-22T13:27:41;5.40;99.90
39079;DHT22;24829;49.208;12.080;2022-11-22T13:30:20;5.30;99.90
39079;DHT22;24829;49.208;12.080;2022-11-22T13:32:54;5.30;99.90
39079;DHT22;24829;49.208;12.080;2022-11-22T13:35:30;5.40;99.90
39079;DHT22;24829;49.208;12.080;2022-11-22T13:38:03;5.40;99.90
39079;DHT22;24829;49.208;12.080;2022-11-22T13:40:52;5.40;99.90
39079;DHT22;24829;49.208;12.080;2022-11-22T13:45:47;5.40;99.90
39079;DHT22;24829;49.208;12.080;2022-11-22T13:51:09;5.50;99.90
39079;DHT22;24829;49.208;12.080;2022-11-22T13:53:43;5.50;99.90
39079;DHT22;24829;49.208;12.080;2022-11-22T13:58:53;5.50;99.90
39079;DHT22;24829;49.208;12.080;2022-11-22T14:09:53;5.40;99.90
39079;DHT22;24829;49.208;12.080;2022-11-22T14:15:08;5.40;99.90
39079;DHT22;24829;49.208;12.080;2022-11-22T14:18:04;5.40;99.90
39079;DHT22;24829;49.208;12.080;2022-11-22T14:23:27;5.30;99.90
39079;DHT22;24829;49.208;12.080;2022-11-22T14:29:11;5.30;99.90
39079;DHT22;24829;49.208;12.080;2022-11-22T14:31:39;5.20;99.90
39079;DHT22;24829;49.208;12.080;2022-11-22T14:34:25;5.20;99.90
39079;DHT22;24829;49.208;12.080;2022-11-22T14:48:02;5.10;99.90
39079;DHT22;24829;49.208;12.080;2022-11-22T14:53:17;5.10;99.90
39079;DHT22;24829;49.208;12.080;2022-11-22T14:55:45;5.00;99.90
39079;DHT22;24829;49.208;12.080;2022-11-22T14:58:14;5.00;99.90
39079;DHT22;24829;49.208;12.080;2022-11-22T15:17:23;4.50;99.90
39079;DHT22;24829;49.208;12.080;2022-11-22T15:19:49;4.40;99.90
39079;DHT22;24829;49.208;12.080;2022-11-22T15:22:18;4.40;99.90
39079;DHT22;24829;49.208;12.080;2022-11-22T15:24:52;4.40;99.90
39079;DHT22;24829;49.208;12.080;2022-11-22T15:27:28;4.50;99.90
39079;DHT22;24829;49.208;12.080;2022-11-22T15:32:43;4.40;99.90
39079;DHT22;24829;49.208;12.080;2022-11-22T15:35:14;4.40;99.90
39079;DHT22;24829;49.208;12.080;2022-11-22T15:37:53;4.40;99.90
39079;DHT22;24829;49.208;12.080;2022-11-22T15:40:21;4.40;99.90
39079;DHT22;24829;49.208;12.080;2022-11-22T15:42:54;4.40;99.90
39079;DHT22;24829;49.208;12.080;2022-11-22T15:45:20;4.40;99.90
39079;DHT22;24829;49.208;12.080;2022-11-22T15:48:48;4.40;99.90
39079;DHT22;24829;49.208;12.080;2022-11-22T15:54:05;4.40;99.90
39079;DHT22;24829;49.208;12.080;2022-11-22T15:56:42;4.40;99.90
39079;DHT22;24829;49.208;12.080;2022-11-22T15:59:34;4.30;99.90
39079;DHT22;24829;49.208;12.080;2022-11-22T16:02:00;4.40;99.90
39079;DHT22;24829;49.208;12.080;2022-11-22T16:04:28;4.30;99.90
39079;DHT22;24829;49.208;12.080;2022-11-22T16:06:56;4.40;99.90
39079;DHT22;24829;49.208;12.080;2022-11-22T16:11:55;4.40;99.90
39079;DHT22;24829;49.208;12.080;2022-11-22T16:14:47;4.40;99.90
39079;DHT22;24829;49.208;12.080;2022-11-22T16:17:28;4.40;99.90
39079;DHT22;24829;49.208;12.080;2022-11-22T16:20:22;4.40;99.90
39079;DHT22;24829;49.208;12.080;2022-11-22T16:25:35;4.40;99.90
39079;DHT22;24829;49.208;12.080;2022-11-22T16:28:05;4.40;99.90
39079;DHT22;24829;49.208;12.080;2022-11-22T16:30:44;4.40;99.90
39079;DHT22;24829;49.208;12.080;2022-11-22T16:33:11;4.40;99.90
39079;DHT22;24829;49.208;12.080;2022-11-22T16:35:37;4.40;99.90
39079;DHT22;24829;49.208;12.080;2022-11-22T16:38:03;4.40;99.90
39079;DHT22;24829;49.208;12.080;2022-11-22T16:40:29;4.40;99.90
39079;DHT22;24829;49.208;12.080;2022-11-22T16:42:55;4.40;99.90
39079;DHT22;24829;49.208;12.080;2022-11-22T16:45:21;4.40;99.90
39079;DHT22;24829;49.208;12.080;2022-11-22T16:47:47;4.40;99.90
39079;DHT22;24829;49.208;12.080;2022-11-22T16:50:15;4.40;99.90
39079;DHT22;24829;49.208;12.080;2022-11-22T16:52:43;4.30;99.90
39079;DHT22;24829;49.208;12.080;2022-11-22T16:55:16;4.40;99.90
39079;DHT22;24829;49.208;12.080;2022-11-22T16:57:42;4.40;99.90
39079;DHT22;24829;49.208;12.080;2022-11-22T17:00:08;4.40;99.90
39079;DHT22;24829;49.208;12.080;2022-11-22T17:02:35;4.30;99.90
39079;DHT22;24829;49.208;12.080;2022-11-22T17:05:02;4.30;99.90
39079;DHT22;24829;49.208;12.080;2022-11-22T17:07:28;4.30;99.90
39079;DHT22;24829;49.208;12.080;2022-11-22T17:09:54;4.20;99.90
39079;DHT22;24829;49.208;12.080;2022-11-22T17:12:22;4.10;99.90
39079;DHT22;24829;49.208;12.080;2022-11-22T17:14:49;4.00;99.90
39079;DHT22;24829;49.208;12.080;2022-11-22T17:17:19;3.90;99.90
39079;DHT22;24829;49.208;12.080;2022-11-22T17:19:45;3.90;99.90
39079;DHT22;24829;49.208;12.080;2022-11-22T17:22:12;3.80;99.90
39079;DHT22;24829;49.208;12.080;2022-11-22T17:24:39;3.80;99.90
39079;DHT22;24829;49.208;12.080;2022-11-22T17:27:04;3.70;99.90
39079;DHT22;24829;49.208;12.080;2022-11-22T17:29:30;3.70;99.90
39079;DHT22;24829;49.208;12.080;2022-11-22T17:31:56;3.70;99.90
39079;DHT22;24829;49.208;12.080;2022-11-22T17:34:21;3.70;99.90
39079;DHT22;24829;49.208;12.080;2022-11-22T17:36:47;3.70;99.90
39079;DHT22;24829;49.208;12.080;2022-11-22T17:39:13;3.70;99.90
39079;DHT22;24829;49.208;12.080;2022-11-22T17:41:39;3.70;99.90
39079;DHT22;24829;49.208;12.080;2022-11-22T17:44:05;3.70;99.90
39079;DHT22;24829;49.208;12.080;2022-11-22T17:46:33;3.70;99.90
39079;DHT22;24829;49.208;12.080;2022-11-22T17:49:00;3.70;99.90
39079;DHT22;24829;49.208;12.080;2022-11-22T17:51:27;3.70;99.90
39079;DHT22;24829;49.208;12.080;2022-11-22T17:53:53;3.80;99.90
39079;DHT22;24829;49.208;12.080;2022-11-22T17:56:19;3.80;99.90
39079;DHT22;24829;49.208;12.080;2022-11-22T17:58:45;3.80;99.90
39079;DHT22;24829;49.208;12.080;2022-11-22T18:01:14;3.80;99.90
39079;DHT22;24829;49.208;12.080;2022-11-22T18:03:40;3.80;99.90
39079;DHT22;24829;49.208;12.080;2022-11-22T18:06:07;3.80;99.90
39079;DHT22;24829;49.208;12.080;2022-11-22T18:08:33;3.80;99.90